Los Lunas ASC Data

Date Time Air Temperature Relative Humidity Dewpoint Windchill Heat Index Wind Speed Wind Dir. Rain Solar Radiation Soil Temperature
2m 2m 3m 3m 10cm
US/Mountain F % F F F MPH deg in MJ/m^2 F
max avg avg
2021-05-04 00:05:00 50.2 61.7 37.6 50.2 50.2 0.0 3.0 1.1 226.6 277.4 0.00 0.0000000 68.5
2021-05-04 00:10:00 49.8 62.7 37.6 49.8 49.8 2.4 2.6 0.8 213.1 224.6 0.00 0.0000000 68.4
2021-05-04 00:15:00 49.7 63.1 37.7 49.7 49.7 1.7 3.0 2.1 243.2 245.7 0.00 0.0000000 68.3
2021-05-04 00:20:00 49.6 63.4 37.7 49.6 49.6 3.0 3.3 1.3 233.6 259.8 0.00 0.0000000 68.2
2021-05-04 00:25:00 49.1 64.2 37.5 49.1 49.1 1.7 4.7 2.7 310.0 278.3 0.00 0.0000000 68.1
2021-05-04 00:30:00 49.1 64.6 37.6 48.2 49.1 3.5 3.7 2.4 292.6 252.7 0.00 0.0000000 68.0
2021-05-04 00:35:00 49.2 64.4 37.7 49.2 49.2 2.2 5.5 2.9 298.8 277.4 0.00 0.0000000 67.9
2021-05-04 00:40:00 49.2 64.5 37.8 49.2 49.2 2.4 3.3 0.8 312.9 268.8 0.00 0.0000000 67.9
2021-05-04 00:45:00 49.1 64.4 37.6 49.1 49.1 0.0 2.4 1.0 164.1 276.6 0.00 0.0000000 67.8
2021-05-04 00:50:00 48.8 65.2 37.6 48.8 48.8 0.8 1.2 0.2 229.1 223.3 0.00 0.0000000 67.7
2021-05-04 00:55:00 48.7 65.0 37.5 48.7 48.7 0.0 0.8 0.0 120.8 152.3 0.00 0.0000000 67.6
2021-05-04 01:00:00 48.5 66.3 37.7 48.5 48.5 0.0 1.0 0.1 105.0 116.3 0.00 0.0000000 67.5
2021-05-04 01:05:00 47.7 68.6 37.9 47.7 47.7 0.0 1.5 0.1 133.7 69.4 0.00 0.0000000 67.4
2021-05-04 01:10:00 47.2 68.8 37.5 47.2 47.2 0.0 0.0 0.0 176.3 0.0 0.00 0.0000000 67.3
2021-05-04 01:15:00 46.9 70.6 37.9 46.9 46.9 0.0 0.0 0.0 271.4 0.0 0.00 0.0000000 67.2
2021-05-04 01:20:00 46.9 70.9 38.0 46.9 46.9 0.0 2.4 0.4 229.9 214.5 0.00 0.0000000 67.1
2021-05-04 01:25:00 47.0 71.3 38.2 47.0 47.0 1.0 1.0 0.0 126.8 126.8 0.00 0.0000000 67.0
2021-05-04 01:30:00 47.1 70.3 38.0 47.1 47.1 1.0 2.4 0.8 216.8 230.2 0.00 0.0000000 67.0
2021-05-04 01:35:00 47.4 70.2 38.2 47.4 47.4 0.0 2.4 0.4 317.9 224.6 0.00 0.0000000 66.9
2021-05-04 01:40:00 47.5 70.7 38.4 47.5 47.5 2.8 2.8 0.6 187.8 189.3 0.00 0.0000000 66.8
2021-05-04 01:45:00 47.0 70.5 37.9 47.0 47.0 0.0 3.0 1.0 89.0 189.5 0.00 0.0000000 66.7
2021-05-04 01:50:00 46.7 71.5 38.0 46.7 46.7 0.0 0.0 0.0 85.3 0.0 0.00 0.0000000 66.6
2021-05-04 01:55:00 46.5 72.4 38.1 46.5 46.5 0.0 0.0 0.0 286.5 0.0 0.00 0.0000000 66.5
2021-05-04 02:00:00 46.2 72.9 38.0 46.2 46.2 1.0 2.4 0.4 80.8 340.5 0.00 0.0000000 66.4
2021-05-04 02:05:00 46.7 71.0 37.8 46.7 46.7 1.7 2.4 0.4 221.9 236.9 0.00 0.0000000 66.3
2021-05-04 02:10:00 46.3 71.9 37.7 46.3 46.3 0.0 2.1 0.6 300.5 220.9 0.00 0.0000000 66.3
2021-05-04 02:15:00 46.2 72.4 37.8 46.2 46.2 0.0 1.0 0.1 258.4 232.2 0.00 0.0000000 66.2
2021-05-04 02:20:00 46.2 71.4 37.5 46.2 46.2 1.7 3.0 1.5 24.2 350.8 0.00 0.0000000 66.1
2021-05-04 02:25:00 46.4 70.9 37.5 46.4 46.4 1.7 2.4 1.2 14.4 315.4 0.00 0.0000000 66.0
2021-05-04 02:30:00 46.5 71.2 37.6 46.5 46.5 2.6 2.6 0.9 309.2 345.4 0.00 0.0000000 65.9
2021-05-04 02:35:00 47.0 69.4 37.5 47.0 47.0 2.2 6.0 2.9 0.5 8.3 0.00 0.0000000 65.9
2021-05-04 02:40:00 46.9 69.6 37.5 46.9 46.9 1.3 4.4 1.9 311.9 320.5 0.00 0.0000000 65.8
2021-05-04 02:45:00 46.6 70.1 37.3 46.6 46.6 0.0 2.4 0.9 317.5 286.1 0.00 0.0000000 65.7
2021-05-04 02:50:00 46.5 70.8 37.5 46.5 46.5 2.2 3.7 1.2 282.6 281.6 0.00 0.0000000 65.6
2021-05-04 02:55:00 46.3 71.4 37.5 46.3 46.3 2.1 3.3 1.7 241.3 246.3 0.00 0.0000000 65.5
2021-05-04 03:00:00 45.9 72.1 37.4 45.9 45.9 3.0 3.0 1.2 245.4 234.2 0.00 0.0000000 65.4
2021-05-04 03:05:00 46.0 72.0 37.5 46.0 46.0 0.0 2.6 0.4 218.2 295.8 0.00 0.0000000 65.4
2021-05-04 03:10:00 45.7 72.3 37.3 44.1 45.7 3.7 4.6 2.1 239.8 235.1 0.00 0.0000000 65.3
2021-05-04 03:15:00 45.9 72.1 37.4 45.9 45.9 1.5 5.1 2.0 289.7 234.8 0.00 0.0000000 65.2
2021-05-04 03:20:00 45.9 72.3 37.4 45.9 45.9 2.6 5.3 2.7 346.0 279.1 0.00 0.0000000 65.1
2021-05-04 03:25:00 45.8 72.8 37.5 44.6 45.8 3.3 4.0 2.6 201.3 266.8 0.00 0.0000000 65.0
2021-05-04 03:30:00 45.4 73.1 37.3 45.4 45.4 1.9 4.6 2.5 213.2 250.3 0.00 0.0000000 65.0
2021-05-04 03:35:00 45.0 74.0 37.2 45.0 45.0 2.2 4.4 2.7 288.7 255.9 0.00 0.0000000 64.9
2021-05-04 03:40:00 44.7 74.3 37.1 43.6 44.7 3.1 4.4 2.6 273.8 270.4 0.00 0.0000000 64.8
2021-05-04 03:45:00 44.6 74.5 37.0 44.6 44.6 1.9 4.7 3.0 275.2 287.9 0.00 0.0000000 64.7
2021-05-04 03:50:00 44.6 74.8 37.1 43.3 44.6 3.3 4.6 2.8 167.8 284.6 0.00 0.0000000 64.7
2021-05-04 03:55:00 44.7 74.3 37.0 44.7 44.7 2.2 4.2 2.3 247.3 241.5 0.00 0.0000000 64.6
2021-05-04 04:00:00 44.7 73.7 36.9 44.7 44.7 1.9 3.7 2.2 219.4 261.0 0.00 0.0000000 64.5
2021-05-04 04:05:00 44.9 73.8 37.0 44.9 44.9 0.8 2.8 1.7 313.2 260.6 0.00 0.0000000 64.4
2021-05-04 04:10:00 44.6 74.0 36.8 44.6 44.6 0.0 2.8 1.0 311.5 266.4 0.00 0.0000000 64.4
2021-05-04 04:15:00 44.3 74.7 36.8 44.3 44.3 1.5 2.6 0.3 306.0 273.3 0.00 0.0000000 64.3
2021-05-04 04:20:00 44.2 74.8 36.7 44.2 44.2 2.1 2.2 1.2 317.3 313.3 0.00 0.0000000 64.2
2021-05-04 04:25:00 44.1 75.0 36.7 44.1 44.1 0.0 2.8 1.0 26.2 301.9 0.00 0.0000000 64.1
2021-05-04 04:30:00 44.1 75.0 36.7 44.1 44.1 0.0 2.2 0.5 312.1 274.9 0.00 0.0000000 64.1
2021-05-04 04:35:00 43.8 75.7 36.6 43.8 43.8 0.0 0.0 0.0 222.5 0.0 0.00 0.0000000 64.0
2021-05-04 04:40:00 43.5 77.2 36.9 43.5 43.5 2.6 2.6 1.4 234.4 226.8 0.00 0.0000000 64.0
2021-05-04 04:45:00 43.5 77.3 36.8 43.5 43.5 2.6 3.1 2.3 238.1 221.1 0.00 0.0000000 63.9
2021-05-04 04:50:00 43.9 75.6 36.7 43.9 43.9 1.3 4.0 2.2 190.7 215.0 0.00 0.0000000 63.8
2021-05-04 04:55:00 44.0 75.2 36.6 44.0 44.0 0.0 2.4 1.3 76.3 81.1 0.00 0.0000000 63.7
2021-05-04 05:00:00 43.9 75.4 36.6 43.9 43.9 2.4 3.0 1.5 230.4 265.4 0.00 0.0000000 63.6
2021-05-04 05:05:00 44.0 75.4 36.7 44.0 44.0 2.1 2.1 0.6 166.3 201.4 0.00 0.0000000 63.6
2021-05-04 05:10:00 44.2 74.9 36.7 44.2 44.2 0.0 3.8 0.9 103.8 225.6 0.00 0.0000000 63.5
2021-05-04 05:15:00 44.2 75.6 37.0 44.2 44.2 1.9 1.9 0.3 247.7 226.5 0.00 0.0000000 63.4
2021-05-04 05:20:00 43.7 75.4 36.5 43.7 43.7 0.0 2.4 1.6 114.0 190.5 0.00 0.0000000 63.4
2021-05-04 05:25:00 43.1 78.5 36.8 41.0 43.1 3.8 3.8 0.8 201.0 71.1 0.00 0.0000000 63.3
2021-05-04 05:30:00 43.9 75.2 36.5 43.9 43.9 3.0 4.9 3.6 217.3 226.5 0.00 0.0000000 63.2
2021-05-04 05:35:00 43.4 76.6 36.6 43.4 43.4 1.2 3.5 2.2 210.4 215.6 0.00 0.0000000 63.1
2021-05-04 05:40:00 43.1 77.9 36.6 43.1 43.1 2.2 2.6 1.1 200.0 214.5 0.00 0.0000000 63.1
2021-05-04 05:45:00 43.1 77.0 36.4 43.1 43.1 3.0 3.0 1.8 252.3 241.4 0.00 0.0000000 63.0
2021-05-04 05:50:00 43.0 76.4 36.1 43.0 43.0 0.0 2.8 0.3 213.0 251.4 0.00 0.0000000 62.9
2021-05-04 05:55:00 42.9 76.7 36.1 42.9 42.9 0.0 3.7 1.5 233.8 235.7 0.00 0.0000000 62.9
2021-05-04 06:00:00 42.7 76.8 35.9 42.7 42.7 0.0 0.0 0.0 283.1 0.0 0.00 0.0010000 62.8
2021-05-04 06:05:00 42.6 77.9 36.2 42.6 42.6 0.0 0.0 0.0 79.5 0.0 0.00 0.0010000 62.7
2021-05-04 06:10:00 41.9 77.6 35.4 41.9 41.9 0.0 0.0 0.0 145.7 0.0 0.00 0.0020000 62.7
2021-05-04 06:15:00 41.2 81.3 35.9 41.2 41.2 1.7 2.2 0.7 228.5 222.0 0.00 0.0040000 62.6
2021-05-04 06:20:00 41.2 82.5 36.3 41.2 41.2 1.9 2.2 1.0 250.1 235.7 0.00 0.0060000 62.5
2021-05-04 06:25:00 41.7 80.7 36.2 41.7 41.7 1.0 2.8 1.6 304.9 240.2 0.00 0.0080000 62.4
2021-05-04 06:30:00 42.2 79.3 36.3 40.5 42.2 3.3 3.3 1.3 255.6 292.4 0.00 0.0100000 62.4
2021-05-04 06:35:00 42.3 78.6 36.1 42.3 42.3 0.0 3.3 1.4 342.1 309.7 0.00 0.0130000 62.3
2021-05-04 06:40:00 42.8 78.0 36.4 42.8 42.8 0.0 2.6 1.2 64.8 320.5 0.00 0.0150000 62.2
2021-05-04 06:45:00 43.1 76.9 36.3 43.1 43.1 0.0 3.1 0.8 254.7 315.9 0.00 0.0170000 62.2
2021-05-04 06:50:00 43.2 76.6 36.4 43.2 43.2 1.2 1.9 0.6 299.4 284.0 0.00 0.0190000 62.1
2021-05-04 06:55:00 43.6 76.3 36.6 43.6 43.6 1.2 1.3 0.5 3.2 312.5 0.00 0.0210000 62.0
2021-05-04 07:00:00 43.8 76.1 36.8 43.8 43.8 0.0 1.9 0.4 225.7 46.5 0.00 0.0230000 62.0
2021-05-04 07:05:00 44.0 77.5 37.5 44.0 44.0 2.2 2.2 1.6 203.6 208.9 0.00 0.0680000 61.9
2021-05-04 07:10:00 44.4 76.2 37.4 44.4 44.4 1.9 2.6 2.1 203.8 211.1 0.00 0.1300000 61.9
2021-05-04 07:15:00 45.0 73.7 37.1 45.0 45.0 2.2 3.0 2.0 217.5 220.7 0.00 0.0970000 61.8
2021-05-04 07:20:00 45.3 71.9 36.8 44.1 45.3 3.3 4.0 2.7 342.3 232.3 0.00 0.0870000 61.8
2021-05-04 07:25:00 45.4 72.7 37.1 45.4 45.4 1.9 3.1 2.2 193.8 213.6 0.00 0.0380000 61.7
2021-05-04 07:30:00 45.6 72.9 37.4 45.6 45.6 1.7 4.0 2.4 215.7 201.0 0.00 0.1440000 61.6
2021-05-04 07:35:00 45.8 71.0 37.0 45.8 45.8 0.8 3.0 1.5 240.1 225.9 0.00 0.1960000 61.6
2021-05-04 07:40:00 46.1 70.1 36.9 46.1 46.1 1.5 3.3 2.1 211.2 222.5 0.00 0.2220000 61.5
2021-05-04 07:45:00 46.4 70.3 37.3 45.5 46.4 3.1 4.6 2.5 189.2 209.7 0.00 0.2380000 61.5
2021-05-04 07:50:00 46.8 69.4 37.3 45.9 46.8 3.1 3.8 3.0 214.8 205.2 0.00 0.2540000 61.5
2021-05-04 07:55:00 47.3 68.4 37.4 47.3 47.3 1.7 3.3 2.4 187.2 228.4 0.00 0.2710000 61.4
2021-05-04 08:00:00 47.6 69.4 38.1 47.6 47.6 2.4 4.6 2.8 197.8 224.1 0.00 0.2860000 61.4
2021-05-04 08:05:00 48.3 67.1 37.9 48.3 48.3 2.8 3.0 2.3 202.5 188.2 0.00 0.3020000 61.3
2021-05-04 08:10:00 48.4 67.1 37.9 48.4 48.4 0.0 3.8 2.3 257.2 194.9 0.00 0.3180000 61.3
2021-05-04 08:15:00 49.1 63.5 37.2 48.5 49.1 3.1 3.1 1.5 233.3 226.9 0.00 0.3350000 61.3
2021-05-04 08:20:00 50.1 62.4 37.7 50.1 50.1 0.0 2.6 1.5 108.1 235.9 0.00 0.3530000 61.3
2021-05-04 08:25:00 51.0 59.4 37.4 51.0 51.0 1.3 3.7 1.3 23.2 269.6 0.00 0.2540000 61.3
2021-05-04 08:30:00 51.1 60.6 37.9 51.1 51.1 2.1 4.0 1.9 314.9 245.8 0.00 0.1300000 61.2
2021-05-04 08:35:00 51.3 62.0 38.7 51.3 51.3 1.5 3.3 2.4 234.1 227.6 0.00 0.4010000 61.2
2021-05-04 08:40:00 52.5 56.8 37.6 52.5 52.5 1.5 4.0 1.3 182.0 335.2 0.00 0.4180000 61.1
2021-05-04 08:45:00 51.7 58.3 37.5 51.7 51.7 2.2 4.9 3.4 222.5 230.9 0.00 0.4330000 61.1
2021-05-04 08:50:00 52.9 57.5 38.3 52.9 52.9 2.6 3.1 1.7 257.0 252.3 0.00 0.4490000 61.2
2021-05-04 08:55:00 53.9 54.1 37.7 53.9 53.9 4.2 4.2 1.8 229.7 21.4 0.00 0.4660000 61.2
2021-05-04 09:00:00 53.4 55.8 38.0 53.4 53.4 3.3 5.3 3.2 278.5 271.2 0.00 0.4800000 61.2
2021-05-04 09:05:00 53.2 57.5 38.6 53.2 53.2 2.1 4.9 2.9 259.7 238.1 0.00 0.4950000 61.3
2021-05-04 09:10:00 54.6 53.4 38.0 54.6 54.6 2.1 5.1 2.9 273.1 294.5 0.00 0.5100000 61.4
2021-05-04 09:15:00 53.5 55.6 38.0 53.5 53.5 2.2 6.2 3.4 196.2 216.6 0.00 0.5250000 61.4
2021-05-04 09:20:00 54.5 56.1 39.2 54.5 54.5 2.8 3.7 2.3 77.8 201.9 0.00 0.5390000 61.5
2021-05-04 09:25:00 55.0 52.3 37.9 55.0 55.0 3.7 4.7 3.1 280.4 306.7 0.00 0.5540000 61.6
2021-05-04 09:30:00 54.8 56.2 39.4 54.8 54.8 3.5 4.6 3.1 193.7 218.6 0.00 0.5680000 61.8
2021-05-04 09:35:00 56.2 57.2 41.3 56.2 56.2 2.2 3.0 1.4 185.3 177.8 0.00 0.5830000 61.9
2021-05-04 09:40:00 57.0 51.4 39.3 57.0 57.0 3.0 3.7 2.5 221.8 202.8 0.00 0.5970000 62.1
2021-05-04 09:45:00 56.6 52.9 39.6 56.6 56.6 1.3 4.4 2.9 33.1 273.8 0.00 0.6120000 62.2
2021-05-04 09:50:00 57.3 51.7 39.6 57.3 57.3 1.3 4.4 2.3 43.1 34.7 0.00 0.6240000 62.4
2021-05-04 09:55:00 57.3 51.3 39.5 57.3 57.3 3.7 4.0 2.4 53.3 50.3 0.00 0.6370000 62.6
2021-05-04 10:00:00 55.9 52.4 38.8 55.9 55.9 3.1 5.8 3.8 52.2 55.4 0.00 0.6490000 62.8
2021-05-04 10:05:00 56.2 50.8 38.2 56.2 56.2 2.2 4.0 3.0 95.2 44.2 0.00 0.6620000 63.0
2021-05-04 10:10:00 57.3 48.5 38.0 57.3 57.3 1.5 4.2 2.0 21.8 54.3 0.00 0.6740000 63.2
2021-05-04 10:15:00 58.3 50.7 40.1 58.3 58.3 1.5 3.7 2.3 172.5 21.3 0.00 0.6870000 63.4
2021-05-04 10:20:00 57.7 47.7 38.0 57.7 57.7 3.7 6.5 3.2 190.6 186.0 0.00 0.7000000 63.6
2021-05-04 10:25:00 58.6 50.8 40.4 58.6 58.6 2.2 3.7 1.7 174.7 175.3 0.00 0.7110000 63.8
2021-05-04 10:30:00 59.5 45.3 38.3 59.5 59.5 2.4 3.8 2.6 78.4 111.6 0.00 0.7210000 64.0
2021-05-04 10:35:00 60.2 43.8 38.1 60.2 60.2 3.3 3.7 2.1 193.7 81.7 0.00 0.7340000 64.2
2021-05-04 10:40:00 58.8 45.5 37.8 58.8 58.8 4.7 6.9 3.8 184.5 179.6 0.00 0.7420000 64.5
2021-05-04 10:45:00 58.0 53.8 41.4 58.0 58.0 2.4 6.2 3.8 241.2 191.1 0.00 0.7520000 64.7
2021-05-04 10:50:00 59.0 44.9 37.6 59.0 59.0 4.0 4.0 2.6 37.1 270.2 0.00 0.7600000 65.0
2021-05-04 10:55:00 60.0 47.6 40.0 60.0 60.0 4.4 4.4 2.9 62.0 30.5 0.00 0.7700000 65.2
2021-05-04 11:00:00 60.1 43.3 37.7 60.1 60.1 4.4 5.1 3.2 247.4 235.8 0.00 0.7820000 65.4
2021-05-04 11:05:00 59.5 45.5 38.4 59.5 59.5 3.8 4.7 3.2 221.2 224.7 0.00 0.7920000 65.7
2021-05-04 11:10:00 61.0 43.5 38.6 61.0 61.0 3.8 5.1 2.2 207.3 201.8 0.00 0.8000000 66.0
2021-05-04 11:15:00 61.9 45.4 40.6 61.9 61.9 0.8 4.7 2.2 340.1 165.3 0.00 0.8080000 66.2
2021-05-04 11:20:00 61.8 42.2 38.6 61.8 61.8 3.3 5.5 2.5 11.2 85.2 0.00 0.8150000 66.5
2021-05-04 11:25:00 61.4 42.5 38.4 61.4 61.4 1.5 4.4 2.6 320.0 293.4 0.00 0.8200000 66.8
2021-05-04 11:30:00 61.4 43.0 38.7 61.4 61.4 3.1 5.6 3.0 192.0 184.7 0.00 0.8310000 67.0
2021-05-04 11:35:00 61.3 41.7 37.8 61.3 61.3 3.5 6.0 3.5 246.3 227.3 0.00 0.8360000 67.3
2021-05-04 11:40:00 60.7 46.5 40.1 60.7 60.7 2.2 5.6 3.5 112.2 195.5 0.00 0.8400000 67.5
2021-05-04 11:45:00 61.3 46.8 40.8 61.3 61.3 2.1 5.1 2.4 172.5 236.3 0.00 0.8500000 67.8
2021-05-04 11:50:00 62.6 42.6 39.6 62.6 62.6 2.4 4.0 2.4 132.5 59.9 0.00 0.8570000 68.1
2021-05-04 11:55:00 63.2 42.2 39.9 63.2 63.2 3.0 4.9 3.1 188.8 155.0 0.00 0.8590000 68.4
2021-05-04 12:00:00 62.2 46.2 41.3 62.2 62.2 5.1 7.2 3.9 155.0 201.9 0.00 0.8640000 68.6
2021-05-04 12:05:00 61.6 40.2 37.2 61.6 61.6 3.3 6.9 4.2 231.4 213.5 0.00 0.8670000 68.9
2021-05-04 12:10:00 62.4 38.0 36.5 62.4 62.4 4.6 5.8 2.7 321.5 300.0 0.00 0.8740000 69.2
2021-05-04 12:15:00 62.6 39.8 37.9 62.6 62.6 1.3 5.1 3.1 54.9 45.5 0.00 0.8710000 69.4
2021-05-04 12:20:00 63.5 45.9 42.3 63.5 63.5 3.0 4.7 3.1 164.4 168.8 0.00 0.8740000 69.7
2021-05-04 12:25:00 64.1 47.4 43.8 64.1 64.1 3.0 5.1 2.9 216.9 226.6 0.00 0.8820000 70.0
2021-05-04 12:30:00 64.7 38.3 38.6 64.7 64.7 3.5 5.5 3.1 297.8 211.5 0.00 0.8860000 70.3
2021-05-04 12:35:00 64.4 35.4 36.4 64.4 64.4 0.0 6.5 3.4 94.0 227.2 0.00 0.8890000 70.5
2021-05-04 12:40:00 65.0 35.6 37.1 65.0 65.0 3.1 6.5 3.1 2.2 41.1 0.00 0.8860000 70.8
2021-05-04 12:45:00 67.0 34.8 38.3 67.0 67.0 1.2 2.6 1.7 98.2 25.0 0.00 0.8920000 71.1
2021-05-04 12:50:00 65.9 41.7 42.0 65.9 65.9 4.9 5.6 3.9 189.8 205.6 0.00 0.8910000 71.4
2021-05-04 12:55:00 66.0 34.9 37.4 66.0 66.0 3.5 5.6 2.9 204.6 148.6 0.00 0.8960000 71.6
2021-05-04 13:00:00 66.5 33.2 36.6 66.5 66.5 1.9 4.9 2.8 4.2 219.8 0.00 0.8930000 71.9
2021-05-04 13:05:00 66.6 36.7 39.3 66.6 66.6 1.5 3.1 1.8 120.1 283.4 0.00 0.8970000 72.2
2021-05-04 13:10:00 66.9 33.2 37.0 66.9 66.9 3.1 4.7 2.7 93.4 57.4 0.00 0.8950000 72.4
2021-05-04 13:15:00 67.5 32.0 36.6 67.5 67.5 2.6 4.9 2.3 40.5 73.0 0.00 0.8930000 72.7
2021-05-04 13:20:00 69.6 28.3 35.4 69.6 69.6 2.8 4.0 1.7 208.9 113.1 0.00 0.8950000 73.0
2021-05-04 13:25:00 69.9 28.5 35.8 69.9 69.9 2.8 4.2 1.7 218.9 141.4 0.00 0.8980000 73.3
2021-05-04 13:30:00 69.5 29.2 36.1 69.5 69.5 2.4 4.4 1.9 85.1 76.2 0.00 0.8970000 73.5
2021-05-04 13:35:00 69.1 32.5 38.4 69.1 69.1 2.8 4.4 2.1 73.5 99.7 0.00 0.8920000 73.8
2021-05-04 13:40:00 67.8 31.5 36.5 67.8 67.8 0.0 4.0 2.0 237.0 157.4 0.00 0.8820000 74.0
2021-05-04 13:45:00 67.5 29.7 34.7 67.5 67.5 3.0 4.7 2.4 240.2 223.6 0.00 0.8800000 74.3
2021-05-04 13:50:00 67.5 28.8 34.0 67.5 67.5 3.1 4.4 2.5 30.4 44.1 0.00 0.8800000 74.6
2021-05-04 13:55:00 67.8 28.3 33.8 67.8 67.8 4.9 4.9 3.0 338.4 33.8 0.00 0.8800000 74.8
2021-05-04 14:00:00 69.8 27.1 34.4 69.8 69.8 4.2 5.3 3.4 279.9 307.9 0.00 0.8750000 75.1
2021-05-04 14:05:00 69.5 31.3 37.8 69.5 69.5 4.7 9.0 3.3 32.8 356.8 0.00 0.8720000 75.3
2021-05-04 14:10:00 69.8 27.6 34.8 69.8 69.8 2.1 5.5 3.6 76.5 39.9 0.00 0.8780000 75.5
2021-05-04 14:15:00 70.6 28.6 36.4 70.6 70.6 3.5 5.1 2.3 168.6 126.4 0.00 0.8730000 75.7
2021-05-04 14:20:00 69.4 27.7 34.5 69.4 69.4 7.1 7.2 3.8 214.9 193.4 0.00 0.8730000 75.9
2021-05-04 14:25:00 69.4 26.4 33.4 69.4 69.4 2.8 7.6 2.9 44.3 165.6 0.00 0.5680000 76.1
2021-05-04 14:30:00 70.7 26.2 34.3 70.7 70.7 1.9 3.8 1.6 128.3 72.4 0.00 0.8780000 76.2
2021-05-04 14:35:00 71.1 25.6 34.0 71.1 71.1 2.8 4.0 2.6 34.9 49.0 0.00 0.8770000 76.4
2021-05-04 14:40:00 72.1 26.4 35.6 72.1 72.1 6.9 6.9 2.7 235.1 47.1 0.00 0.8480000 76.6
2021-05-04 14:45:00 70.8 32.6 40.0 70.8 70.8 0.8 9.6 4.0 196.6 180.5 0.00 0.8210000 76.7
2021-05-04 14:50:00 71.0 25.4 33.8 71.0 71.0 1.5 4.7 1.6 79.1 92.8 0.00 0.8180000 76.9
2021-05-04 14:55:00 71.1 25.3 33.9 71.1 71.1 4.9 5.3 2.3 205.4 137.9 0.00 0.8090000 77.0
2021-05-04 15:00:00 70.6 26.6 34.6 70.6 70.6 4.0 4.6 3.2 199.2 181.4 0.00 0.8030000 77.1
2021-05-04 15:05:00 70.2 28.8 36.2 70.2 70.2 5.3 6.5 4.8 210.3 188.7 0.00 0.7900000 77.3
2021-05-04 15:10:00 69.7 24.4 31.7 69.7 69.7 4.0 7.2 4.6 131.0 176.8 0.00 0.7810000 77.4
2021-05-04 15:15:00 70.9 25.0 33.3 70.9 70.9 0.0 4.4 2.7 230.6 126.8 0.00 0.7740000 77.5
2021-05-04 15:20:00 70.9 24.6 32.9 70.9 70.9 5.6 6.3 2.9 267.0 225.0 0.00 0.7640000 77.5
2021-05-04 15:25:00 71.0 23.7 32.1 71.0 71.0 5.5 5.8 3.1 284.2 241.0 0.00 0.7550000 77.6
2021-05-04 15:30:00 71.4 26.9 35.5 71.4 71.4 2.4 6.0 2.4 91.8 323.6 0.00 0.7410000 77.7
2021-05-04 15:35:00 73.6 27.6 38.1 73.6 73.6 1.9 3.5 1.8 97.0 65.5 0.00 0.7360000 77.7
2021-05-04 15:40:00 73.7 23.3 33.9 73.7 73.7 2.8 4.2 2.2 112.9 154.4 0.00 0.7260000 77.7
2021-05-04 15:45:00 72.8 22.0 31.7 72.8 72.8 2.6 6.5 3.8 224.0 223.9 0.00 0.7120000 77.7
2021-05-04 15:50:00 72.5 21.9 31.4 72.5 72.5 3.5 3.5 2.2 233.3 224.1 0.00 0.7020000 77.7
2021-05-04 15:55:00 72.0 25.5 34.8 72.0 72.0 3.0 8.1 4.5 197.4 225.4 0.00 0.6890000 77.7
2021-05-04 16:00:00 71.7 26.3 35.2 71.7 71.7 0.0 7.6 3.9 194.5 213.2 0.00 0.6770000 77.7
2021-05-04 16:05:00 72.1 25.3 34.6 72.1 72.1 1.7 4.6 2.1 234.5 231.5 0.00 0.6670000 77.7
2021-05-04 16:10:00 72.2 22.1 31.4 72.2 72.2 1.5 7.4 4.2 68.7 220.9 0.00 0.6530000 77.7
2021-05-04 16:15:00 72.6 24.7 34.4 72.6 72.6 3.0 4.4 2.6 237.9 262.5 0.00 0.6390000 77.6
2021-05-04 16:20:00 72.9 23.0 33.0 72.9 72.9 0.0 4.2 2.1 318.9 225.4 0.00 0.6280000 77.6
2021-05-04 16:25:00 73.1 25.7 35.9 73.1 73.1 2.8 6.7 3.7 233.2 206.1 0.00 0.6130000 77.6
2021-05-04 16:30:00 72.9 21.6 31.4 72.9 72.9 6.2 8.7 5.8 161.8 202.2 0.00 0.6000000 77.6
2021-05-04 16:35:00 72.6 25.7 35.4 72.6 72.6 4.2 6.5 4.1 256.2 253.5 0.00 0.5850000 77.6
2021-05-04 16:40:00 73.1 23.3 33.4 73.1 73.1 4.6 4.9 3.2 148.4 218.5 0.00 0.5710000 77.6
2021-05-04 16:45:00 74.6 24.5 36.0 74.6 74.6 1.0 4.6 1.8 227.2 145.9 0.00 0.5590000 77.6
2021-05-04 16:50:00 74.5 22.0 33.1 74.5 74.5 0.0 4.4 1.9 54.9 202.5 0.00 0.5430000 77.5
2021-05-04 16:55:00 73.5 24.5 35.0 73.5 73.5 5.5 5.6 2.4 215.0 225.8 0.00 0.5290000 77.5
2021-05-04 17:00:00 74.4 21.8 32.9 74.4 74.4 3.5 5.6 2.2 183.5 167.4 0.00 0.5140000 77.5
2021-05-04 17:05:00 74.3 24.9 36.1 74.3 74.3 3.1 3.8 2.1 174.9 189.2 0.00 0.4990000 77.4
2021-05-04 17:10:00 74.1 21.6 32.4 74.1 74.1 3.5 7.1 3.0 224.4 224.3 0.00 0.4840000 77.4
2021-05-04 17:15:00 73.8 21.4 31.9 73.8 73.8 2.6 4.6 3.3 168.3 189.8 0.00 0.4680000 77.3
2021-05-04 17:20:00 73.7 23.8 34.4 73.7 73.7 4.2 7.1 4.2 193.2 193.2 0.00 0.4530000 77.3
2021-05-04 17:25:00 74.1 22.2 33.1 74.1 74.1 5.5 6.5 3.9 179.8 196.0 0.00 0.4380000 77.3
2021-05-04 17:30:00 73.2 22.8 33.0 73.2 73.2 4.2 8.1 3.9 180.0 187.5 0.00 0.4210000 77.2
2021-05-04 17:35:00 73.2 22.1 32.2 73.2 73.2 4.4 6.3 4.0 145.0 187.8 0.00 0.4060000 77.2
2021-05-04 17:40:00 73.5 22.6 33.0 73.5 73.5 6.0 6.0 3.4 187.1 173.4 0.00 0.3890000 77.1
2021-05-04 17:45:00 73.5 21.5 31.7 73.5 73.5 3.0 6.0 3.3 196.5 173.7 0.00 0.3740000 77.0
2021-05-04 17:50:00 73.6 20.7 30.9 73.6 73.6 1.2 6.9 3.6 176.1 174.7 0.00 0.3570000 77.0
2021-05-04 17:55:00 74.0 21.6 32.2 74.0 74.0 4.0 5.3 3.5 214.2 172.7 0.00 0.3410000 76.9
2021-05-04 18:00:00 73.8 22.9 33.5 73.8 73.8 2.8 5.1 3.1 183.0 204.1 0.00 0.3250000 76.9
2021-05-04 18:05:00 73.6 21.8 32.2 73.6 73.6 3.5 5.8 4.0 199.4 189.0 0.00 0.3100000 76.8
2021-05-04 18:10:00 73.8 21.3 31.7 73.8 73.8 5.6 5.6 3.0 171.6 191.7 0.00 0.2930000 76.8
2021-05-04 18:15:00 73.8 20.7 31.0 73.8 73.8 0.0 5.6 2.7 135.1 177.1 0.00 0.2760000 76.7
2021-05-04 18:20:00 74.0 21.5 32.1 74.0 74.0 3.3 5.5 2.0 154.5 165.8 0.00 0.2590000 76.7
2021-05-04 18:25:00 74.1 20.6 31.1 74.1 74.1 2.4 4.4 2.3 179.5 157.0 0.00 0.2430000 76.6
2021-05-04 18:30:00 73.9 22.3 33.0 73.9 73.9 2.1 5.8 2.8 194.5 168.5 0.00 0.2260000 76.6
2021-05-04 18:35:00 73.9 20.6 31.0 73.9 73.9 3.5 4.2 2.3 169.8 193.8 0.00 0.2100000 76.5
2021-05-04 18:40:00 73.7 21.6 32.1 73.7 73.7 3.5 4.4 2.6 132.7 183.9 0.00 0.1950000 76.5
2021-05-04 18:45:00 73.4 20.6 30.5 73.4 73.4 3.1 4.4 2.9 214.6 192.8 0.00 0.1790000 76.4
2021-05-04 18:50:00 73.2 21.9 31.9 73.2 73.2 2.4 6.0 2.9 155.6 183.4 0.00 0.1630000 76.3
2021-05-04 18:55:00 73.3 21.0 31.0 73.3 73.3 2.6 4.4 2.6 218.6 181.2 0.00 0.1480000 76.3
2021-05-04 19:00:00 73.3 21.3 31.4 73.3 73.3 3.5 4.4 2.9 198.5 175.0 0.00 0.1330000 76.2
2021-05-04 19:05:00 72.8 21.8 31.6 72.8 72.8 0.0 6.7 2.8 200.5 172.1 0.00 0.1180000 76.1
2021-05-04 19:10:00 72.8 21.6 31.4 72.8 72.8 4.6 5.8 2.9 188.8 171.8 0.00 0.1030000 76.0
2021-05-04 19:15:00 72.3 22.4 31.8 72.3 72.3 3.7 4.6 3.1 188.2 194.7 0.00 0.0870000 76.0
2021-05-04 19:20:00 72.0 23.0 32.1 72.0 72.0 1.5 4.2 2.5 196.3 195.0 0.00 0.0680000 75.9
2021-05-04 19:25:00 71.3 23.0 31.6 71.3 71.3 1.0 2.8 1.8 209.0 182.8 0.00 0.0510000 75.7
2021-05-04 19:30:00 70.8 23.5 31.7 70.8 70.8 2.2 2.8 2.1 191.5 189.3 0.00 0.0180000 75.7
2021-05-04 19:35:00 70.2 24.3 32.0 70.2 70.2 1.3 3.1 2.1 190.3 184.9 0.00 0.0120000 75.5
2021-05-04 19:40:00 69.8 24.4 31.8 69.8 69.8 1.3 2.6 1.5 204.4 204.6 0.00 0.0110000 75.4
2021-05-04 19:45:00 69.4 24.9 31.9 69.4 69.4 1.5 2.6 1.9 201.2 194.5 0.00 0.0080000 75.3
2021-05-04 19:50:00 68.8 26.1 32.6 68.8 68.8 0.8 2.2 1.3 198.5 195.7 0.00 0.0060000 75.2
2021-05-04 19:55:00 68.3 27.5 33.5 68.3 68.3 1.2 1.9 1.3 198.8 192.9 0.00 0.0040000 75.0
2021-05-04 20:00:00 67.2 28.4 33.4 67.2 67.2 0.0 1.2 0.3 214.4 195.3 0.00 0.0020000 74.9
2021-05-04 20:05:00 66.9 26.2 31.0 66.9 66.9 1.7 2.2 1.1 246.4 219.2 0.00 0.0010000 74.8
2021-05-04 20:10:00 67.2 26.7 31.8 67.2 67.2 2.2 2.8 2.1 216.9 227.8 0.00 0.0000000 74.7
2021-05-04 20:15:00 67.4 26.3 31.6 67.4 67.4 1.2 2.2 1.4 178.2 214.0 0.00 0.0000000 74.5
2021-05-04 20:20:00 67.0 26.5 31.5 67.0 67.0 0.0 2.6 1.2 243.0 236.4 0.00 0.0000000 74.4
2021-05-04 20:25:00 66.4 27.0 31.4 66.4 66.4 0.0 1.2 0.2 252.2 241.4 0.00 0.0000000 74.2
2021-05-04 20:30:00 65.8 27.5 31.4 65.8 65.8 0.0 0.0 0.0 267.0 0.0 0.00 0.0000000 74.2
2021-05-04 20:35:00 64.8 29.2 32.0 64.8 64.8 0.0 0.0 0.0 197.5 0.0 0.00 0.0000000 74.0
2021-05-04 20:40:00 64.0 30.1 32.0 64.0 64.0 0.0 0.0 0.0 211.2 0.0 0.00 0.0000000 73.9
2021-05-04 20:45:00 63.1 34.0 34.3 63.1 63.1 0.0 0.0 0.0 164.4 0.0 0.00 0.0000000 73.7
2021-05-04 20:50:00 62.6 32.7 32.9 62.6 62.6 0.0 0.0 0.0 272.6 0.0 0.00 0.0000000 73.6
2021-05-04 20:55:00 62.1 32.5 32.3 62.1 62.1 0.0 0.8 0.1 266.0 246.2 0.00 0.0000000 73.5
2021-05-04 21:00:00 61.8 33.7 32.9 61.8 61.8 1.0 1.0 0.1 262.7 257.5 0.00 0.0000000 73.3
2021-05-04 21:05:00 61.4 33.3 32.3 61.4 61.4 0.0 1.7 0.6 332.3 252.0 0.00 0.0000000 73.2
2021-05-04 21:10:00 61.1 33.8 32.4 61.1 61.1 0.0 0.0 0.0 229.8 0.0 0.00 0.0000000 73.1
2021-05-04 21:15:00 61.6 31.8 31.2 61.6 61.6 1.7 1.9 1.1 226.7 241.9 0.00 0.0000000 73.0
2021-05-04 21:20:00 61.9 32.0 31.7 61.9 61.9 1.3 1.5 0.7 235.9 232.2 0.00 0.0000000 72.8
2021-05-04 21:25:00 62.2 33.1 32.8 62.2 62.2 0.0 1.5 1.2 243.4 241.5 0.00 0.0000000 72.7
2021-05-04 21:30:00 61.5 33.1 32.2 61.5 61.5 0.0 0.0 0.0 202.0 0.0 0.00 0.0000000 72.5
2021-05-04 21:35:00 60.9 33.3 31.8 60.9 60.9 0.0 0.8 0.0 220.7 164.1 0.00 0.0000000 72.4
2021-05-04 21:40:00 60.5 33.9 31.9 60.5 60.5 0.8 1.0 0.1 254.5 253.2 0.00 0.0000000 72.3
2021-05-04 21:45:00 60.4 33.2 31.3 60.4 60.4 0.0 0.8 0.1 285.9 277.4 0.00 0.0000000 72.2
2021-05-04 21:50:00 60.3 33.1 31.1 60.3 60.3 1.0 1.3 0.4 255.3 278.8 0.00 0.0000000 72.1
2021-05-04 21:55:00 60.1 33.1 30.9 60.1 60.1 1.2 2.1 1.3 257.4 264.7 0.00 0.0000000 71.9
2021-05-04 22:00:00 59.5 34.0 31.1 59.5 59.5 1.3 1.3 0.7 284.1 285.7 0.00 0.0000000 71.8
2021-05-04 22:05:00 58.6 34.6 30.7 58.6 58.6 1.7 2.1 1.4 299.0 288.8 0.00 0.0000000 71.7
2021-05-04 22:10:00 58.1 36.4 31.5 58.1 58.1 0.0 2.1 0.8 296.4 278.8 0.00 0.0000000 71.5
2021-05-04 22:15:00 57.2 37.0 31.1 57.2 57.2 1.3 1.9 1.1 303.4 285.0 0.00 0.0000000 71.4
2021-05-04 22:20:00 57.0 36.3 30.5 57.0 57.0 0.0 2.2 0.8 260.8 282.5 0.00 0.0000000 71.3
2021-05-04 22:25:00 56.8 37.9 31.4 56.8 56.8 0.0 2.4 1.0 261.6 273.4 0.00 0.0000000 71.2
2021-05-04 22:30:00 57.0 37.4 31.2 57.0 57.0 0.0 1.7 0.7 125.6 258.8 0.00 0.0000000 71.1
2021-05-04 22:35:00 57.0 37.8 31.4 57.0 57.0 1.3 1.3 0.3 275.4 241.7 0.00 0.0000000 71.0
2021-05-04 22:40:00 56.6 36.9 30.5 56.6 56.6 0.0 1.3 0.1 278.1 288.5 0.00 0.0000000 70.9
2021-05-04 22:45:00 56.3 37.3 30.5 56.3 56.3 0.0 0.8 0.1 258.5 281.7 0.00 0.0000000 70.7
2021-05-04 22:50:00 56.3 37.3 30.5 56.3 56.3 1.3 1.5 0.4 277.9 288.8 0.00 0.0000000 70.6
2021-05-04 22:55:00 56.4 36.7 30.2 56.4 56.4 2.1 2.2 1.7 257.4 247.6 0.00 0.0000000 70.5
2021-05-04 23:00:00 56.8 36.8 30.6 56.8 56.8 0.0 2.1 0.7 265.0 250.2 0.00 0.0000000 70.4
2021-05-04 23:05:00 56.7 36.8 30.5 56.7 56.7 0.0 1.5 0.8 337.2 298.4 0.00 0.0000000 70.3
2021-05-04 23:10:00 56.2 36.6 30.0 56.2 56.2 0.0 1.3 0.1 243.7 244.7 0.00 0.0000000 70.2
2021-05-04 23:15:00 55.9 37.4 30.2 55.9 55.9 0.0 1.3 0.4 264.0 260.0 0.00 0.0000000 70.0
2021-05-04 23:20:00 55.9 36.2 29.5 55.9 55.9 1.7 2.2 0.9 215.5 250.4 0.00 0.0000000 69.9
2021-05-04 23:25:00 56.8 34.3 28.9 56.8 56.8 1.9 3.7 2.1 225.0 240.1 0.00 0.0000000 69.8
2021-05-04 23:30:00 58.3 33.2 29.4 58.3 58.3 2.1 3.3 2.2 254.8 232.4 0.00 0.0000000 69.7
2021-05-04 23:35:00 58.4 34.4 30.4 58.4 58.4 1.3 2.4 1.7 234.1 224.3 0.00 0.0000000 69.6
2021-05-04 23:40:00 57.8 35.4 30.5 57.8 57.8 0.0 1.7 0.9 255.6 243.1 0.00 0.0000000 69.5
2021-05-04 23:45:00 56.7 36.3 30.3 56.7 56.7 0.0 0.8 0.0 319.9 318.6 0.00 0.0000000 69.4
2021-05-04 23:50:00 55.9 38.0 30.7 55.9 55.9 0.0 1.5 0.2 201.2 315.9 0.00 0.0000000 69.3
2021-05-04 23:55:00 55.2 38.4 30.3 55.2 55.2 1.3 1.5 0.4 223.7 255.5 0.00 0.0000000 69.2
2021-05-05 00:00:00 55.2 39.2 30.8 55.2 55.2 1.3 2.8 1.7 175.7 211.7 0.00 0.0000000 69.1

Data is courtesy of the NM Climate Center. DO NOT USE IN LEGAL PROCEEDINGS.